Time;durP1;ratioP1;P1;durP2;ratioP2;P2;SDS_P1;SDS_P2;PMS_P1;PMS_P2;Temp;Humidity;BMP_temperature;BMP_pressure;BME280_temperature;BME280_humidity;BME280_pressure;Samples;Min_cycle;Max_cycle;Signal;HPM_P1;HPM_P2
2023/01/04 00:02:13;;;;;;;22.30;14.15;;;21.10;84.80;;;;;;1876005;76;21140;-87
2023/01/04 00:04:44;;;;;;;21.05;14.28;;;21.10;84.90;;;;;;1857224;76;21128;-87
2023/01/04 00:07:14;;;;;;;28.57;13.05;;;21.10;84.90;;;;;;1876008;76;21086;-86
2023/01/04 00:09:45;;;;;;;19.62;11.65;;;21.10;85.00;;;;;;1852340;76;21152;-86
2023/01/04 00:12:19;;;;;;;18.30;11.03;;;21.20;84.90;;;;;;1839197;76;21092;-86
2023/01/04 00:14:50;;;;;;;19.67;10.78;;;21.20;84.50;;;;;;1851969;76;21205;-86
2023/01/04 00:17:21;;;;;;;16.27;10.45;;;21.20;85.00;;;;;;1809316;78;21157;-86
2023/01/04 00:19:52;;;;;;;18.35;11.48;;;21.20;84.40;;;;;;1790367;80;21099;-87
2023/01/04 00:22:23;;;;;;;19.90;12.43;;;21.30;84.00;;;;;;1811654;78;21162;-86
2023/01/04 00:24:53;;;;;;;24.07;13.45;;;21.30;84.10;;;;;;1804588;78;21108;-86
2023/01/04 00:27:24;;;;;;;20.23;14.07;;;21.30;84.00;;;;;;1809095;78;21557;-86
2023/01/04 00:29:55;;;;;;;19.85;13.32;;;21.30;84.10;;;;;;1799808;78;21109;-86
2023/01/04 00:32:26;;;;;;;24.82;16.32;;;21.30;83.60;;;;;;1772709;80;21102;-86
2023/01/04 00:34:57;;;;;;;18.48;11.95;;;21.40;83.80;;;;;;1825064;79;21162;-86
2023/01/04 00:37:27;;;;;;;21.45;11.25;;;21.40;83.20;;;;;;1804908;79;21095;-88
2023/01/04 00:39:58;;;;;;;23.57;14.98;;;21.40;82.80;;;;;;1821187;78;21105;-86
2023/01/04 00:42:29;;;;;;;19.05;11.15;;;21.40;82.90;;;;;;1818344;78;21128;-87
2023/01/04 00:45:00;;;;;;;24.95;15.60;;;21.40;82.80;;;;;;1826444;78;21119;-86
2023/01/04 00:47:32;;;;;;;18.17;12.55;;;21.50;82.90;;;;;;1799030;78;21099;-86
2023/01/04 00:50:05;;;;;;;17.73;11.38;;;21.50;83.10;;;;;;1797197;79;21173;-87
2023/01/04 00:52:36;;;;;;;17.00;10.30;;;21.50;83.30;;;;;;1816783;78;21096;-84
2023/01/04 00:55:10;;;;;;;17.48;10.93;;;21.50;83.60;;;;;;1804994;78;21083;-85
2023/01/04 00:57:41;;;;;;;16.67;10.95;;;21.50;83.10;;;;;;1817500;78;21089;-85
2023/01/04 01:00:15;;;;;;;18.10;10.28;;;21.60;82.90;;;;;;1789865;79;21172;-84
2023/01/04 01:02:47;;;;;;;16.12;9.80;;;21.60;82.70;;;;;;1778632;80;21559;-87
2023/01/04 01:05:27;;;;;;;13.28;9.85;;;21.60;82.50;;;;;;1823503;77;21694;-86
2023/01/04 01:07:58;;;;;;;20.05;9.48;;;21.70;82.80;;;;;;1793076;80;21077;-86
2023/01/04 01:10:33;;;;;;;11.73;8.28;;;21.70;82.80;;;;;;1801852;78;21546;-86
2023/01/04 01:13:05;;;;;;;11.43;7.97;;;21.80;82.70;;;;;;1860661;76;21555;-87
2023/01/04 01:15:37;;;;;;;13.78;8.65;;;21.80;82.10;;;;;;1787382;80;21520;-87
2023/01/04 01:18:09;;;;;;;15.58;7.92;;;21.90;82.20;;;;;;1875533;76;21204;-87
2023/01/04 01:20:44;;;;;;;11.75;6.58;;;22.00;82.00;;;;;;1792451;79;21126;-86
2023/01/04 01:23:16;;;;;;;14.90;6.67;;;22.00;81.40;;;;;;1864046;76;21089;-86
2023/01/04 01:25:47;;;;;;;14.20;7.30;;;22.10;80.70;;;;;;1850783;76;21542;-88
2023/01/04 01:28:18;;;;;;;11.97;7.65;;;22.10;80.80;;;;;;1799572;79;21115;-87
2023/01/04 01:30:48;;;;;;;11.43;7.05;;;22.20;80.50;;;;;;1875740;75;21136;-88
2023/01/04 01:33:19;;;;;;;12.58;6.80;;;22.20;80.30;;;;;;1785102;79;21149;-87
2023/01/04 01:35:50;;;;;;;14.50;9.13;;;22.20;80.30;;;;;;1791507;78;21221;-89
2023/01/04 01:38:21;;;;;;;16.35;9.98;;;22.30;80.00;;;;;;1804665;79;21143;-89
2023/01/04 01:40:51;;;;;;;18.42;8.53;;;22.30;80.00;;;;;;1803475;79;21088;-87
2023/01/04 01:43:25;;;;;;;15.50;9.10;;;22.30;80.00;;;;;;1791813;79;21146;-86
2023/01/04 01:45:58;;;;;;;12.00;7.67;;;22.30;79.90;;;;;;1802051;78;21087;-87
2023/01/04 01:48:30;;;;;;;12.33;7.67;;;22.40;79.50;;;;;;1798621;79;21258;-89
2023/01/04 01:51:03;;;;;;;14.65;7.35;;;22.40;79.30;;;;;;1789572;79;21150;-87
2023/01/04 01:53:36;;;;;;;9.98;6.35;;;22.40;79.40;;;;;;1799551;77;21138;-87
2023/01/04 01:56:09;;;;;;;12.23;7.33;;;22.50;78.50;;;;;;1791186;79;21158;-88
2023/01/04 01:58:42;;;;;;;16.52;7.33;;;22.50;78.50;;;;;;1791451;78;21067;-87
2023/01/04 02:01:13;;;;;;;14.45;7.08;;;22.60;78.80;;;;;;1784672;78;21083;-88
2023/01/04 02:03:45;;;;;;;8.70;6.05;;;22.60;78.60;;;;;;1806800;77;21166;-87
2023/01/04 02:06:21;;;;;;;11.03;6.78;;;22.60;78.40;;;;;;1876441;76;21157;-87
2023/01/04 02:08:52;;;;;;;12.23;7.05;;;22.70;78.50;;;;;;1827014;77;21198;-88
2023/01/04 02:11:23;;;;;;;13.65;6.83;;;22.70;78.30;;;;;;1828748;77;21105;-88
2023/01/04 02:16:57;;;;;;;10.53;6.55;;;22.80;78.10;;;;;;1794525;79;21526;-89
2023/01/04 02:20:04;;;;;;;16.75;7.37;;;22.80;78.20;;;;;;1824505;77;21615;-90
2023/01/04 02:22:57;;;;;;;12.58;7.42;;;22.80;78.20;;;;;;1827148;77;21545;-89
2023/01/04 02:26:03;;;;;;;13.85;6.55;;;22.90;78.20;;;;;;1810043;78;21076;-89
2023/01/04 02:28:34;;;;;;;;;;;23.00;77.70;;;;;;1827389;78;21175;-87
2023/01/04 02:31:24;;;;;;;12.13;6.65;;;23.00;77.90;;;;;;1826302;78;20133;-89
2023/01/04 02:34:00;;;;;;;11.18;6.90;;;23.10;77.90;;;;;;1810682;78;21166;-87
2023/01/04 02:36:59;;;;;;;11.63;7.40;;;23.10;77.80;;;;;;1821339;78;21216;-88
2023/01/04 02:39:55;;;;;;;12.40;6.97;;;23.10;77.70;;;;;;1833718;76;21089;-88
2023/01/04 02:45:31;;;;;;;12.73;7.33;;;23.20;77.80;;;;;;1831916;77;21153;-88
2023/01/04 02:51:00;;;;;;;9.35;6.25;;;23.20;77.70;;;;;;1816983;78;21093;-88
2023/01/04 02:53:33;;;;;;;11.33;6.17;;;23.20;77.50;;;;;;1820622;77;21119;-89
2023/01/04 02:56:37;;;;;;;11.43;6.47;;;23.30;77.60;;;;;;1856408;77;21064;-87
2023/01/04 02:59:16;;;;;;;10.35;6.83;;;23.40;77.50;;;;;;1829560;77;21139;-90
2023/01/04 03:07:56;;;;;;;10.48;6.70;;;23.60;77.20;;;;;;1838683;77;21182;-90
2023/01/04 03:10:35;;;;;;;11.10;6.00;;;23.70;76.90;;;;;;1827878;77;21239;-88
2023/01/04 03:13:11;;;;;;;15.35;6.37;;;23.70;76.70;;;;;;1835933;77;21103;-70
2023/01/04 03:15:45;;;;;;;12.85;5.75;;;23.80;76.50;;;;;;1833403;77;21688;-69
2023/01/04 03:18:24;;;;;;;8.50;4.65;;;23.90;76.20;;;;;;1846482;76;21158;-69
2023/01/04 03:20:58;;;;;;;10.18;5.92;;;24.00;75.70;;;;;;1856295;75;21147;-69
2023/01/04 03:49:49;;;;;;;7.83;4.42;;;24.90;72.20;;;;;;1897474;74;21190;-69
2023/01/04 03:52:20;;;;;;;9.68;4.67;;;25.00;72.30;;;;;;1854312;76;21159;-70
2023/01/04 03:54:53;;;;;;;9.50;4.67;;;25.00;71.60;;;;;;1852365;76;21129;-70
2023/01/04 03:57:32;;;;;;;7.62;3.90;;;25.10;70.80;;;;;;1853429;77;21595;-68
2023/01/04 04:00:15;;;;;;;6.83;4.00;;;25.30;70.70;;;;;;1830649;77;21193;-70
2023/01/04 04:02:49;;;;;;;11.53;4.10;;;25.30;70.80;;;;;;1828918;77;21163;-70
2023/01/04 04:08:48;;;;;;;13.08;5.62;;;25.40;69.70;;;;;;1831873;77;21170;-68
2023/01/04 04:11:31;;;;;;;6.65;4.12;;;25.60;69.90;;;;;;1829600;77;21280;-68
2023/01/04 04:14:02;;;;;;;11.28;4.83;;;25.70;68.60;;;;;;1784068;78;21698;-69
2023/01/04 04:16:34;;;;;;;6.58;4.35;;;25.80;69.00;;;;;;1855098;75;21251;-69
2023/01/04 04:19:05;;;;;;;7.75;4.37;;;25.90;68.40;;;;;;1784206;79;21109;-70
2023/01/04 04:21:37;;;;;;;6.40;4.20;;;26.00;68.20;;;;;;1807273;78;21245;-68
2023/01/04 04:24:09;;;;;;;6.70;3.35;;;26.10;68.20;;;;;;1807115;78;21162;-69
2023/01/04 04:26:40;;;;;;;5.90;2.92;;;26.30;67.30;;;;;;1811089;78;21156;-69
2023/01/04 04:29:12;;;;;;;5.80;3.00;;;26.40;66.90;;;;;;1855492;75;21121;-68
2023/01/04 04:31:43;;;;;;;4.83;2.65;;;26.50;66.10;;;;;;1821327;77;21134;-68
2023/01/04 04:34:14;;;;;;;5.10;3.20;;;26.60;66.30;;;;;;1851254;75;21140;-68
2023/01/04 04:36:45;;;;;;;4.62;3.12;;;26.70;65.10;;;;;;1854054;75;21184;-67
2023/01/04 04:39:16;;;;;;;6.95;3.40;;;26.80;65.80;;;;;;1785261;78;21164;-69
2023/01/04 04:41:47;;;;;;;8.88;3.72;;;26.90;65.10;;;;;;1856328;75;21085;-68
2023/01/04 04:44:19;;;;;;;6.83;3.58;;;26.90;65.50;;;;;;1792824;78;21131;-70
2023/01/04 04:46:50;;;;;;;7.42;3.58;;;27.00;65.30;;;;;;1819059;77;21180;-68
2023/01/04 04:49:21;;;;;;;8.83;4.17;;;27.00;64.80;;;;;;1816844;77;21203;-69
2023/01/04 04:51:54;;;;;;;9.98;4.33;;;27.10;63.90;;;;;;1784899;79;21184;-69
2023/01/04 04:54:24;;;;;;;5.65;3.70;;;27.10;64.20;;;;;;1857208;75;21191;-70
2023/01/04 04:56:55;;;;;;;7.35;4.05;;;27.20;63.90;;;;;;1859077;75;21196;-69
2023/01/04 04:59:26;;;;;;;5.45;3.70;;;27.20;64.60;;;;;;1795362;78;21619;-69
2023/01/04 05:01:57;;;;;;;7.00;4.10;;;27.30;63.50;;;;;;1852772;75;21513;-69
2023/01/04 05:04:29;;;;;;;6.45;3.72;;;27.40;63.80;;;;;;1860032;75;21162;-69
2023/01/04 05:07:00;;;;;;;7.60;3.67;;;27.50;63.00;;;;;;1857639;75;21653;-69
2023/01/04 05:09:33;;;;;;;4.72;2.98;;;27.50;62.30;;;;;;1855348;75;21162;-70
2023/01/04 05:14:52;;;;;;;6.05;3.45;;;27.50;62.70;;;;;;1860177;75;21136;-70
2023/01/04 05:17:23;;;;;;;5.58;4.05;;;27.60;63.00;;;;;;1854064;75;21125;-70
2023/01/04 05:19:54;;;;;;;6.30;3.80;;;27.70;62.80;;;;;;1811237;77;21152;-70
2023/01/04 05:22:25;;;;;;;5.72;3.60;;;27.70;63.80;;;;;;1813806;77;21146;-70
2023/01/04 05:25:02;;;;;;;6.62;3.72;;;27.90;62.20;;;;;;1791160;78;21224;-70
2023/01/04 05:27:32;;;;;;;5.10;3.25;;;28.00;61.50;;;;;;1867259;75;21146;-70
2023/01/04 05:32:56;;;;;;;5.58;2.58;;;28.10;61.50;;;;;;1854381;75;21235;-69
2023/01/04 05:35:28;;;;;;;6.42;2.45;;;28.20;61.40;;;;;;1858833;75;21168;-69
2023/01/04 05:37:59;;;;;;;4.78;2.33;;;28.30;61.40;;;;;;1857655;75;21200;-70
2023/01/04 05:40:32;;;;;;;3.15;2.40;;;28.30;60.40;;;;;;1851623;75;21281;-71
2023/01/04 05:43:03;;;;;;;4.60;2.50;;;28.40;60.10;;;;;;1849297;75;21109;-70
2023/01/04 05:45:34;;;;;;;6.55;2.62;;;28.40;60.90;;;;;;1851665;75;21176;-70
2023/01/04 05:48:05;;;;;;;6.78;2.45;;;28.50;59.40;;;;;;1858643;75;21155;-70
2023/01/04 05:50:36;;;;;;;4.85;3.15;;;28.50;59.30;;;;;;1852363;75;21136;-71
2023/01/04 05:53:07;;;;;;;5.22;2.92;;;28.50;59.20;;;;;;1854526;75;21828;-70
2023/01/04 05:55:38;;;;;;;5.03;2.45;;;28.60;59.40;;;;;;1858914;75;21701;-70
2023/01/04 05:58:10;;;;;;;4.92;2.37;;;28.60;60.10;;;;;;1855582;75;21142;-70
2023/01/04 06:00:40;;;;;;;5.50;3.27;;;28.60;59.30;;;;;;1785062;77;21146;-70
2023/01/04 06:03:12;;;;;;;7.00;3.25;;;28.60;59.70;;;;;;1854207;75;21174;-70
2023/01/04 06:05:46;;;;;;;7.47;3.15;;;28.70;59.40;;;;;;1855433;75;21273;-70
2023/01/04 06:08:16;;;;;;;5.72;3.55;;;28.70;58.60;;;;;;1812439;77;21644;-70
2023/01/04 06:10:55;;;;;;;5.08;2.85;;;28.60;58.60;;;;;;1862076;75;21115;-69
2023/01/04 06:13:26;;;;;;;5.80;3.02;;;28.60;59.30;;;;;;1799728;77;21215;-70
2023/01/04 06:15:58;;;;;;;6.33;3.10;;;28.60;59.80;;;;;;1856468;75;21156;-70
2023/01/04 06:18:32;;;;;;;5.58;2.83;;;28.70;59.30;;;;;;1805281;78;21068;-69
2023/01/04 06:21:04;;;;;;;4.17;2.17;;;28.80;59.00;;;;;;1870217;75;21138;-69
2023/01/04 06:23:37;;;;;;;3.52;2.45;;;28.80;59.00;;;;;;1806247;78;21081;-70
2023/01/04 06:26:30;;;;;;;4.35;2.40;;;28.90;58.60;;;;;;1865337;75;21693;-69
2023/01/04 06:29:00;;;;;;;3.22;2.00;;;28.90;59.10;;;;;;1937267;73;21187;-70
2023/01/04 06:31:32;;;;;;;4.67;2.22;;;28.90;58.50;;;;;;1934192;73;21200;-70
2023/01/04 06:34:03;;;;;;;5.78;1.90;;;28.80;58.60;;;;;;1927670;73;21152;-71
2023/01/04 06:36:34;;;;;;;4.03;1.90;;;28.90;59.20;;;;;;1928507;73;21129;-70
2023/01/04 06:39:06;;;;;;;3.42;2.20;;;28.90;58.50;;;;;;1928504;73;21130;-70
2023/01/04 06:41:37;;;;;;;2.58;1.82;;;28.80;58.20;;;;;;1924522;73;21208;-70
2023/01/04 06:44:08;;;;;;;3.52;1.85;;;28.80;58.70;;;;;;1892785;74;21208;-70
2023/01/04 06:46:41;;;;;;;3.72;2.45;;;28.80;58.00;;;;;;1852546;76;21118;-70
2023/01/04 06:49:13;;;;;;;2.98;2.00;;;28.80;58.40;;;;;;1939173;73;21110;-70
2023/01/04 06:51:43;;;;;;;4.17;1.80;;;28.90;58.30;;;;;;1926584;73;21160;-70
2023/01/04 06:54:14;;;;;;;3.37;1.42;;;28.90;57.80;;;;;;1931329;73;21173;-70
2023/01/04 06:56:45;;;;;;;3.45;1.90;;;29.00;58.20;;;;;;1888192;74;21107;-69
2023/01/04 06:59:16;;;;;;;5.08;1.77;;;29.10;58.30;;;;;;1930023;73;21121;-70
2023/01/04 07:01:47;;;;;;;4.37;2.30;;;29.10;58.70;;;;;;1869362;76;21871;-72
2023/01/04 07:04:18;;;;;;;2.85;1.87;;;29.10;57.40;;;;;;1863209;76;21221;-71
2023/01/04 07:06:50;;;;;;;3.45;1.90;;;29.10;57.60;;;;;;1935498;73;21193;-70
2023/01/04 07:09:21;;;;;;;4.60;1.50;;;29.10;57.80;;;;;;1923931;73;21190;-71
2023/01/04 07:11:53;;;;;;;2.83;1.30;;;29.10;57.80;;;;;;1925412;73;21245;-69
2023/01/04 07:14:24;;;;;;;3.35;1.40;;;29.10;58.10;;;;;;1927107;73;21148;-70
2023/01/04 07:16:54;;;;;;;4.95;1.72;;;29.10;58.20;;;;;;1925375;73;21129;-70
2023/01/04 07:19:26;;;;;;;3.67;1.80;;;29.10;57.50;;;;;;1847775;76;21648;-70
2023/01/04 07:21:57;;;;;;;3.72;1.70;;;29.20;57.80;;;;;;1880964;74;21157;-67
2023/01/04 07:24:28;;;;;;;3.52;2.42;;;29.10;56.80;;;;;;1858228;76;21232;-69
2023/01/04 07:27:03;;;;;;;4.22;2.00;;;29.10;57.40;;;;;;1855514;76;21092;-67
2023/01/04 07:29:34;;;;;;;2.25;1.40;;;29.20;58.10;;;;;;1848637;76;21753;-69
2023/01/04 07:32:08;;;;;;;4.65;1.70;;;29.20;57.80;;;;;;1924228;73;21175;-69
2023/01/04 07:34:43;;;;;;;3.42;1.50;;;29.20;58.00;;;;;;1927521;73;21756;-68
2023/01/04 07:37:14;;;;;;;2.62;1.30;;;29.20;58.10;;;;;;1923449;73;21135;-69
2023/01/04 07:39:47;;;;;;;2.90;1.27;;;29.20;57.80;;;;;;1884673;74;21833;-68
2023/01/04 07:42:19;;;;;;;2.37;1.20;;;29.20;57.30;;;;;;1937157;73;21227;-69
2023/01/04 07:44:49;;;;;;;3.65;1.10;;;29.20;57.50;;;;;;1880642;74;21140;-68
2023/01/04 07:47:21;;;;;;;5.47;1.45;;;29.20;57.80;;;;;;1936343;73;21585;-69
2023/01/04 07:49:52;;;;;;;3.72;1.40;;;29.20;57.60;;;;;;1848302;76;21527;-69
2023/01/04 07:52:23;;;;;;;3.67;1.57;;;29.20;58.20;;;;;;1875113;75;21159;-69
2023/01/04 07:54:54;;;;;;;4.05;1.87;;;29.20;57.70;;;;;;1928841;73;21190;-70
2023/01/04 07:57:26;;;;;;;2.80;1.60;;;29.20;58.30;;;;;;1855677;76;21321;-69
2023/01/04 07:59:59;;;;;;;2.75;1.50;;;29.20;58.20;;;;;;1932055;73;21577;-70
2023/01/04 08:02:30;;;;;;;4.67;1.57;;;29.20;58.20;;;;;;1883045;74;21073;-68
2023/01/04 08:05:02;;;;;;;4.25;1.67;;;29.10;58.30;;;;;;1923600;73;21623;-69
2023/01/04 08:07:33;;;;;;;2.92;1.37;;;29.10;58.20;;;;;;1887452;74;21197;-69
2023/01/04 08:10:08;;;;;;;6.00;1.85;;;29.10;58.10;;;;;;1927261;73;21097;-68
2023/01/04 08:12:40;;;;;;;3.10;1.40;;;29.10;57.80;;;;;;1848448;76;21169;-69
2023/01/04 08:15:13;;;;;;;2.20;1.12;;;29.20;58.00;;;;;;1873514;75;21212;-69
2023/01/04 08:17:44;;;;;;;5.92;1.37;;;29.10;57.90;;;;;;1876113;74;21179;-68
2023/01/04 08:20:14;;;;;;;6.87;1.52;;;29.10;58.00;;;;;;1932078;73;21230;-69
2023/01/04 08:22:45;;;;;;;6.40;2.00;;;29.10;58.00;;;;;;1934244;73;21150;-68
2023/01/04 08:25:17;;;;;;;5.10;1.90;;;29.00;58.10;;;;;;1931383;73;21184;-69
2023/01/04 08:27:48;;;;;;;2.98;1.40;;;29.00;58.10;;;;;;1927553;73;21180;-69
2023/01/04 08:30:21;;;;;;;4.70;1.67;;;29.00;58.50;;;;;;1914754;73;21249;-69
2023/01/04 08:32:53;;;;;;;3.17;1.70;;;29.00;58.30;;;;;;1916859;73;21185;-69
2023/01/04 08:35:25;;;;;;;3.85;1.60;;;29.00;58.70;;;;;;1914290;74;21114;-68
2023/01/04 08:38:00;;;;;;;5.25;1.75;;;29.00;58.70;;;;;;1915920;73;21142;-68
2023/01/04 08:40:32;;;;;;;3.15;1.65;;;28.90;58.50;;;;;;1908449;73;21149;-68
2023/01/04 08:43:05;;;;;;;5.78;2.08;;;28.90;58.60;;;;;;1911011;74;21167;-69
2023/01/04 08:45:36;;;;;;;3.30;1.40;;;28.90;58.80;;;;;;1918913;74;21070;-67
2023/01/04 08:48:07;;;;;;;2.30;1.40;;;28.90;59.10;;;;;;1915476;73;21087;-69
2023/01/04 08:50:38;;;;;;;4.80;1.57;;;28.90;58.80;;;;;;1915802;73;21062;-68
2023/01/04 08:53:09;;;;;;;4.80;2.02;;;28.90;58.60;;;;;;1917697;73;21095;-68
2023/01/04 08:55:40;;;;;;;2.52;1.17;;;28.90;58.50;;;;;;1848200;76;21184;-68
2023/01/04 08:58:11;;;;;;;3.45;1.60;;;28.90;58.70;;;;;;1836685;77;21750;-68
2023/01/04 09:00:42;;;;;;;6.40;2.08;;;28.80;58.60;;;;;;1830359;77;21778;-69
2023/01/04 09:03:13;;;;;;;4.50;1.70;;;28.70;58.60;;;;;;1873612;75;21153;-68
2023/01/04 09:05:49;;;;;;;3.20;1.22;;;28.70;58.80;;;;;;1866821;75;21132;-69
2023/01/04 09:08:17;;;;;;;2.95;1.15;;;28.60;59.00;;;;;;1828920;77;21185;-69
2023/01/04 09:10:48;;;;;;;2.72;1.25;;;28.60;59.00;;;;;;1868009;75;21552;-67
2023/01/04 09:13:19;;;;;;;2.10;1.15;;;28.50;59.20;;;;;;1856681;75;21090;-69
2023/01/04 09:15:50;;;;;;;3.22;1.37;;;28.50;59.40;;;;;;1853430;75;21209;-70
2023/01/04 09:18:22;;;;;;;3.35;1.27;;;28.40;59.60;;;;;;1854728;75;21153;-69
2023/01/04 09:20:54;;;;;;;5.28;1.45;;;28.40;59.40;;;;;;1836463;75;21190;-70
2023/01/04 09:23:25;;;;;;;2.25;1.20;;;28.30;59.50;;;;;;1869766;75;21626;-69
2023/01/04 09:25:56;;;;;;;2.17;1.30;;;28.20;59.70;;;;;;1866974;75;21200;-70
2023/01/04 09:28:29;;;;;;;4.08;1.70;;;28.20;60.00;;;;;;1859445;75;21235;-70
2023/01/04 09:31:01;;;;;;;3.67;1.37;;;28.10;60.10;;;;;;1864256;75;21214;-71
2023/01/04 09:33:31;;;;;;;4.55;1.50;;;28.10;60.40;;;;;;1866823;75;21149;-71
2023/01/04 09:36:08;;;;;;;6.78;1.80;;;28.00;60.40;;;;;;1831926;76;21111;-70
2023/01/04 09:38:39;;;;;;;5.17;2.17;;;28.00;60.60;;;;;;1854418;75;21812;-69
2023/01/04 09:41:21;;;;;;;7.35;2.15;;;28.00;60.80;;;;;;1871046;75;21694;-68
2023/01/04 09:43:56;;;;;;;9.63;2.70;;;27.90;60.90;;;;;;1830691;77;21154;-68
2023/01/04 09:46:30;;;;;;;8.33;2.87;;;27.90;61.00;;;;;;1842255;76;21780;-86
2023/01/04 09:49:22;;;;;;;9.48;2.50;;;27.90;61.10;;;;;;1829573;76;21143;-83
2023/01/04 09:52:11;;;;;;;7.25;2.70;;;27.90;61.20;;;;;;1878619;75;21165;-87
2023/01/04 09:54:47;;;;;;;10.58;3.45;;;27.80;61.30;;;;;;1827950;76;21162;-86
2023/01/04 09:57:32;;;;;;;5.45;2.70;;;27.80;61.60;;;;;;1834804;76;21194;-87
2023/01/04 10:00:11;;;;;;;4.90;2.43;;;27.70;61.60;;;;;;1831961;76;21126;-87
2023/01/04 10:02:50;;;;;;;7.67;3.00;;;27.80;61.80;;;;;;1835870;76;21135;-88
2023/01/04 10:05:29;;;;;;;7.10;2.58;;;27.70;61.70;;;;;;1851273;75;21156;-86
2023/01/04 10:08:02;;;;;;;4.50;2.30;;;27.80;62.00;;;;;;1836802;76;21143;-86
2023/01/04 10:10:41;;;;;;;7.72;2.35;;;27.70;61.90;;;;;;1834681;76;21135;-85
2023/01/04 10:13:47;;;;;;;7.25;2.70;;;27.70;62.00;;;;;;1833454;77;21171;-86
2023/01/04 10:16:26;;;;;;;5.33;2.60;;;27.60;62.10;;;;;;1865074;75;21184;-87
2023/01/04 10:19:19;;;;;;;5.58;2.40;;;27.60;62.10;;;;;;1828355;76;21265;-86
2023/01/04 10:21:57;;;;;;;5.10;2.85;;;27.60;62.40;;;;;;1831389;77;21962;-87
2023/01/04 10:24:46;;;;;;;5.97;2.67;;;27.60;62.50;;;;;;1835860;76;21220;-84
2023/01/04 10:27:25;;;;;;;4.67;2.50;;;27.50;62.50;;;;;;1835013;76;21113;-87
2023/01/04 10:30:05;;;;;;;8.38;5.62;;;27.50;62.70;;;;;;1844462;76;21214;-87
2023/01/04 10:32:46;;;;;;;7.17;3.08;;;27.50;62.90;;;;;;1929989;73;21143;-88
2023/01/04 10:35:22;;;;;;;5.80;3.25;;;27.40;63.20;;;;;;1932454;73;21097;-87
2023/01/04 10:38:01;;;;;;;8.95;3.72;;;27.40;63.40;;;;;;1932609;73;21122;-87
2023/01/04 10:40:34;;;;;;;5.92;3.60;;;27.40;63.60;;;;;;1938558;73;21111;-87
2023/01/04 10:43:25;;;;;;;7.22;3.87;;;27.40;63.80;;;;;;1934327;73;21601;-88
2023/01/04 10:46:11;;;;;;;7.53;3.15;;;27.40;63.90;;;;;;1939040;73;21114;-87
2023/01/04 10:48:44;;;;;;;26.95;11.53;;;27.30;64.10;;;;;;1933655;73;21169;-87
2023/01/04 10:51:17;;;;;;;15.23;8.10;;;27.30;64.20;;;;;;1934902;73;21522;-87
2023/01/04 10:53:55;;;;;;;7.47;4.40;;;27.30;64.40;;;;;;1929673;73;21156;-89
2023/01/04 10:56:34;;;;;;;8.17;4.00;;;27.20;64.50;;;;;;1933354;73;21141;-89
2023/01/04 10:59:22;;;;;;;9.33;5.17;;;27.20;64.70;;;;;;1929303;73;21422;-89
2023/01/04 11:01:55;;;;;;;8.48;4.70;;;27.10;64.80;;;;;;1928929;73;21184;-89
2023/01/04 11:04:29;;;;;;;9.33;5.45;;;27.10;65.00;;;;;;1936407;73;21236;-84
2023/01/04 11:07:25;;;;;;;10.80;5.30;;;27.10;65.20;;;;;;1926649;73;21146;-88
2023/01/04 11:10:04;;;;;;;8.38;4.87;;;27.00;65.30;;;;;;1931353;73;21515;-85
2023/01/04 11:12:37;;;;;;;11.85;6.40;;;27.00;65.50;;;;;;1932589;73;21222;-88
2023/01/04 11:15:11;;;;;;;11.25;5.92;;;27.00;65.70;;;;;;1935224;73;21095;-88
2023/01/04 11:17:44;;;;;;;12.23;5.10;;;27.00;65.80;;;;;;1936364;73;21109;-86
2023/01/04 11:20:16;;;;;;;12.70;4.60;;;26.90;66.00;;;;;;1935609;73;21149;-88
2023/01/04 11:22:57;;;;;;;8.30;4.62;;;26.90;66.00;;;;;;1883397;75;21137;-87
2023/01/04 11:25:30;;;;;;;13.38;4.37;;;26.90;66.20;;;;;;1940288;73;21137;-87
2023/01/04 11:28:08;;;;;;;11.95;4.45;;;26.90;66.50;;;;;;1932104;73;21189;-88
2023/01/04 11:30:54;;;;;;;9.80;4.28;;;26.80;66.60;;;;;;1927377;73;21133;-88
2023/01/04 11:33:26;;;;;;;9.15;5.03;;;26.80;66.70;;;;;;1879871;74;21174;-87
2023/01/04 11:36:02;;;;;;;9.65;4.95;;;26.80;67.00;;;;;;1933490;73;21094;-86
2023/01/04 11:38:33;;;;;;;7.35;4.75;;;26.70;67.20;;;;;;1922449;73;21199;-84
2023/01/04 11:41:07;;;;;;;7.92;4.78;;;26.70;67.40;;;;;;1918065;73;21194;-86
2023/01/04 11:43:39;;;;;;;11.20;5.58;;;26.70;67.70;;;;;;1934273;73;21621;-85
2023/01/04 11:46:20;;;;;;;10.45;5.92;;;26.60;67.80;;;;;;1934954;73;21122;-88
2023/01/04 11:48:52;;;;;;;15.72;6.42;;;26.60;67.90;;;;;;1939118;73;21752;-87
2023/01/04 11:51:32;;;;;;;10.45;6.92;;;26.60;68.00;;;;;;1936732;73;21129;-87
2023/01/04 11:54:06;;;;;;;14.43;7.03;;;26.50;68.30;;;;;;1924834;73;21605;-88
2023/01/04 11:56:40;;;;;;;18.25;11.95;;;26.60;68.40;;;;;;1931609;73;21112;-85
2023/01/04 11:59:16;;;;;;;20.62;12.05;;;26.50;68.60;;;;;;1947049;73;21133;-87
2023/01/04 12:02:00;;;;;;;;;;;;;;;;;;;;;
2023/01/04 12:04:28;;;;;;;23.83;14.73;;;26.50;68.90;;;;;;1936800;73;21153;-86
2023/01/04 12:07:10;;;;;;;21.13;14.33;;;26.40;68.80;;;;;;1891301;75;21144;-87
2023/01/04 12:09:41;;;;;;;32.40;18.85;;;26.50;69.00;;;;;;1938206;74;21161;-88
2023/01/04 12:12:14;;;;;;;33.13;21.10;;;26.40;69.00;;;;;;1909828;74;21142;-87
2023/01/04 12:14:51;;;;;;;34.33;21.17;;;26.40;69.00;;;;;;1940842;73;21267;-89
2023/01/04 12:17:31;;;;;;;37.08;24.98;;;26.40;69.10;;;;;;1929572;74;21072;-86
2023/01/04 12:20:06;;;;;;;30.00;20.45;;;26.40;69.10;;;;;;1891273;74;21140;-88
2023/01/04 12:22:40;;;;;;;34.30;19.87;;;26.40;69.10;;;;;;1935464;73;21645;-87
2023/01/04 12:25:25;;;;;;;31.27;20.15;;;26.30;69.00;;;;;;1916342;73;21121;-86
2023/01/04 12:27:56;;;;;;;34.83;22.53;;;26.30;69.10;;;;;;1905757;74;21164;-87
2023/01/04 12:30:44;;;;;;;36.45;23.30;;;26.30;69.10;;;;;;1946108;72;21187;-86
2023/01/04 12:33:34;;;;;;;36.15;22.85;;;26.30;69.10;;;;;;1927038;73;21548;-87
2023/01/04 12:36:08;;;;;;;28.90;19.62;;;26.30;69.10;;;;;;1938740;73;21133;-87
2023/01/04 12:39:00;;;;;;;30.40;17.32;;;26.30;69.10;;;;;;1937407;74;21106;-87
2023/01/04 12:41:39;;;;;;;25.17;15.32;;;26.30;69.10;;;;;;1934239;73;21152;-88
2023/01/04 12:44:42;;;;;;;23.52;14.55;;;26.20;69.10;;;;;;1940681;73;21030;-86
2023/01/04 12:50:10;;;;;;;22.93;13.68;;;26.20;69.10;;;;;;1920623;74;21155;-86
2023/01/04 12:52:51;;;;;;;20.85;13.65;;;26.20;69.20;;;;;;1933194;73;21601;-87
2023/01/04 12:55:29;;;;;;;21.70;14.40;;;26.20;69.30;;;;;;1933489;74;21126;-86
2023/01/04 12:58:05;;;;;;;29.30;15.68;;;26.20;69.40;;;;;;1858381;77;21122;-87
2023/01/04 13:00:53;;;;;;;23.98;15.00;;;26.20;69.40;;;;;;1932105;74;21099;-86
2023/01/04 13:03:27;;;;;;;24.05;15.28;;;26.10;69.30;;;;;;1936398;74;21117;-87
2023/01/04 13:06:03;;;;;;;22.87;14.20;;;26.10;69.50;;;;;;1919041;74;21074;-87
2023/01/04 13:08:43;;;;;;;23.65;14.33;;;26.10;69.50;;;;;;1921157;73;21119;-87
2023/01/04 13:11:31;;;;;;;24.23;14.55;;;26.00;69.50;;;;;;1905475;75;21058;-87
2023/01/04 13:14:07;;;;;;;23.10;14.60;;;26.00;69.70;;;;;;1837060;74;21119;-86
2023/01/04 13:16:52;;;;;;;21.80;15.15;;;26.00;69.90;;;;;;1936844;73;21136;-86
2023/01/04 13:19:25;;;;;;;25.95;14.93;;;26.00;70.10;;;;;;1930501;74;21161;-87
2023/01/04 13:21:57;;;;;;;23.77;15.30;;;26.00;70.20;;;;;;1938644;73;21195;-87
2023/01/04 13:24:30;;;;;;;26.35;14.00;;;26.00;70.50;;;;;;1935629;73;21129;-90
2023/01/04 13:27:05;;;;;;;20.70;13.38;;;26.00;70.60;;;;;;1913835;74;21175;-88
2023/01/04 13:29:38;;;;;;;21.97;13.75;;;25.90;70.70;;;;;;1935809;73;21082;-88
2023/01/04 13:32:12;;;;;;;21.42;13.10;;;25.90;70.90;;;;;;1921351;73;21157;-89
2023/01/04 13:35:00;;;;;;;22.98;13.03;;;25.90;71.10;;;;;;1925167;74;21212;-88
2023/01/04 13:37:38;;;;;;;22.10;13.38;;;25.90;71.30;;;;;;1911788;74;21145;-89
2023/01/04 13:40:34;;;;;;;20.00;12.60;;;25.80;71.50;;;;;;1912757;74;21140;-87
2023/01/04 13:43:23;;;;;;;24.77;12.40;;;25.80;71.70;;;;;;1913177;74;21144;-87
2023/01/04 13:46:12;;;;;;;20.88;12.80;;;25.80;72.10;;;;;;1909768;74;21106;-87
2023/01/04 13:49:07;;;;;;;17.25;10.53;;;25.70;71.90;;;;;;1918302;73;21074;-86
2023/01/04 13:51:37;;;;;;;19.45;10.70;;;25.70;72.20;;;;;;1918056;74;21058;-88
2023/01/04 13:57:20;;;;;;;16.50;9.83;;;25.60;72.40;;;;;;1869527;76;21132;-88
2023/01/04 13:59:52;;;;;;;14.78;8.30;;;25.60;72.50;;;;;;1922908;73;21474;-87
2023/01/04 14:02:23;;;;;;;15.38;8.80;;;25.60;72.60;;;;;;1915630;72;21170;-87
2023/01/04 14:04:55;;;;;;;12.75;7.83;;;25.50;72.50;;;;;;1948308;73;21080;-87
2023/01/04 14:10:39;;;;;;;15.13;8.08;;;25.40;72.30;;;;;;1836123;77;20210;-85
2023/01/04 14:13:13;;;;;;;10.40;6.70;;;25.40;72.50;;;;;;1868623;75;21169;-87
2023/01/04 14:15:46;;;;;;;12.90;7.45;;;25.40;72.70;;;;;;1926663;73;21142;-88
2023/01/04 14:18:31;;;;;;;10.50;6.50;;;25.40;72.70;;;;;;1924130;74;21121;-87
2023/01/04 14:21:21;;;;;;;11.85;5.55;;;25.40;72.90;;;;;;1911564;74;21149;-86